sensor_id;sensor_type;location;lat;lon;timestamp;pressure;altitude;pressure_sealevel;temperature;humidity
77263;BME280;66373;52.334;4.806;2024-03-23T00:55:56;101012.25;;;17.33;56.16
77263;BME280;66373;52.334;4.806;2024-03-23T00:58:23;101014.84;;;17.33;55.84
77263;BME280;66373;52.334;4.806;2024-03-23T01:00:49;101002.75;;;17.30;55.80
77263;BME280;66373;52.334;4.806;2024-03-23T01:03:16;101000.13;;;17.32;55.83
77263;BME280;66373;52.334;4.806;2024-03-23T01:05:42;100998.38;;;17.32;55.91
77263;BME280;66373;52.334;4.806;2024-03-23T01:08:09;100997.53;;;17.32;55.94
77263;BME280;66373;52.334;4.806;2024-03-23T01:10:36;100991.50;;;17.29;55.96
77263;BME280;66373;52.334;4.806;2024-03-23T01:13:04;100983.69;;;17.29;56.04
77263;BME280;66373;52.334;4.806;2024-03-23T01:15:30;100985.44;;;17.29;55.95
77263;BME280;66373;52.334;4.806;2024-03-23T01:17:57;100977.63;;;17.29;55.91
77263;BME280;66373;52.334;4.806;2024-03-23T01:20:23;100974.19;;;17.28;55.78
77263;BME280;66373;52.334;4.806;2024-03-23T01:22:50;100975.06;;;17.27;55.78
77263;BME280;66373;52.334;4.806;2024-03-23T01:25:16;100973.34;;;17.26;55.96
77263;BME280;66373;52.334;4.806;2024-03-23T01:27:45;100969.03;;;17.25;55.87
77263;BME280;66373;52.334;4.806;2024-03-23T01:30:11;100963.81;;;17.25;55.83
77263;BME280;66373;52.334;4.806;2024-03-23T01:32:39;100966.41;;;17.25;55.96
77263;BME280;66373;52.334;4.806;2024-03-23T01:35:06;100964.69;;;17.24;56.03
77263;BME280;66373;52.334;4.806;2024-03-23T01:37:33;100961.25;;;17.24;55.93
77263;BME280;66373;52.334;4.806;2024-03-23T01:40:00;100970.78;;;17.23;55.89
77263;BME280;66373;52.334;4.806;2024-03-23T01:42:29;100969.91;;;17.23;55.93
77263;BME280;66373;52.334;4.806;2024-03-23T01:44:57;100965.59;;;17.23;55.86
77263;BME280;66373;52.334;4.806;2024-03-23T01:47:24;100969.91;;;17.23;55.77
77263;BME280;66373;52.334;4.806;2024-03-23T01:49:50;100965.59;;;17.22;55.86
77263;BME280;66373;52.334;4.806;2024-03-23T01:52:18;100962.16;;;17.21;55.83
77263;BME280;66373;52.334;4.806;2024-03-23T01:54:44;100965.63;;;17.20;55.91
77263;BME280;66373;52.334;4.806;2024-03-23T01:57:11;100956.97;;;17.20;55.82
77263;BME280;66373;52.334;4.806;2024-03-23T01:59:39;100956.97;;;17.20;55.81
77263;BME280;66373;52.334;4.806;2024-03-23T02:02:11;100950.03;;;17.20;55.93
77263;BME280;66373;52.334;4.806;2024-03-23T02:04:37;100953.50;;;17.19;55.83
77263;BME280;66373;52.334;4.806;2024-03-23T02:07:04;100951.78;;;17.18;55.83
77263;BME280;66373;52.334;4.806;2024-03-23T02:09:32;100948.34;;;17.18;55.78
77263;BME280;66373;52.334;4.806;2024-03-23T02:12:01;100938.03;;;17.13;55.91
77263;BME280;66373;52.334;4.806;2024-03-23T02:14:27;100952.69;;;17.17;55.71
77263;BME280;66373;52.334;4.806;2024-03-23T02:16:55;100948.34;;;17.16;55.81
77263;BME280;66373;52.334;4.806;2024-03-23T02:19:22;100943.16;;;17.16;55.72
77263;BME280;66373;52.334;4.806;2024-03-23T02:21:49;100946.63;;;17.15;55.98
77263;BME280;66373;52.334;4.806;2024-03-23T02:24:17;100936.25;;;17.15;55.80
77263;BME280;66373;52.334;4.806;2024-03-23T02:26:44;100937.16;;;17.14;55.94
77263;BME280;66373;52.334;4.806;2024-03-23T02:29:10;100939.75;;;17.14;55.70
77263;BME280;66373;52.334;4.806;2024-03-23T02:31:37;100930.25;;;17.13;55.78
77263;BME280;66373;52.334;4.806;2024-03-23T02:34:03;100923.31;;;17.12;55.62
77263;BME280;66373;52.334;4.806;2024-03-23T02:36:30;100922.44;;;17.13;55.69
77263;BME280;66373;52.334;4.806;2024-03-23T02:38:56;100909.50;;;17.10;55.68
77263;BME280;66373;52.334;4.806;2024-03-23T02:41:25;100912.03;;;17.13;55.76
77263;BME280;66373;52.334;4.806;2024-03-23T02:43:51;100910.38;;;17.09;55.73
77263;BME280;66373;52.334;4.806;2024-03-23T02:46:18;100906.91;;;17.10;55.79
77263;BME280;66373;52.334;4.806;2024-03-23T02:48:44;100912.09;;;17.10;55.77
77263;BME280;66373;52.334;4.806;2024-03-23T02:51:12;100910.38;;;17.09;55.92
77263;BME280;66373;52.334;4.806;2024-03-23T02:53:38;100905.19;;;17.09;55.82
77263;BME280;66373;52.334;4.806;2024-03-23T02:56:05;100899.97;;;17.09;55.87
77263;BME280;66373;52.334;4.806;2024-03-23T02:58:34;100906.94;;;17.07;55.73
77263;BME280;66373;52.334;4.806;2024-03-23T03:01:00;100903.47;;;17.08;55.67
77263;BME280;66373;52.334;4.806;2024-03-23T03:03:27;100895.69;;;17.07;55.61
77263;BME280;66373;52.334;4.806;2024-03-23T03:05:55;100894.81;;;17.06;55.75
77263;BME280;66373;52.334;4.806;2024-03-23T03:08:22;100898.31;;;17.05;55.64
77263;BME280;66373;52.334;4.806;2024-03-23T03:10:48;100897.44;;;17.06;55.75
77263;BME280;66373;52.334;4.806;2024-03-23T03:13:15;100893.09;;;17.05;55.62
77263;BME280;66373;52.334;4.806;2024-03-23T03:15:43;100881.00;;;17.04;55.72
77263;BME280;66373;52.334;4.806;2024-03-23T03:18:10;100886.19;;;17.04;55.60
77263;BME280;66373;52.334;4.806;2024-03-23T03:20:38;100883.59;;;17.04;55.70
77263;BME280;66373;52.334;4.806;2024-03-23T03:23:05;100881.00;;;17.04;55.73
77263;BME280;66373;52.334;4.806;2024-03-23T03:25:31;100879.28;;;17.03;55.60
77263;BME280;66373;52.334;4.806;2024-03-23T03:27:58;100889.66;;;17.03;55.74
77263;BME280;66373;52.334;4.806;2024-03-23T03:30:24;100884.47;;;17.03;55.62
77263;BME280;66373;52.334;4.806;2024-03-23T03:32:53;100880.16;;;17.02;55.63
77263;BME280;66373;52.334;4.806;2024-03-23T03:35:20;100877.56;;;17.02;55.67
77263;BME280;66373;52.334;4.806;2024-03-23T03:37:47;100873.25;;;17.00;55.54
77263;BME280;66373;52.334;4.806;2024-03-23T03:40:13;100874.13;;;17.00;55.61
77263;BME280;66373;52.334;4.806;2024-03-23T03:42:42;100881.09;;;16.96;55.51
77263;BME280;66373;52.334;4.806;2024-03-23T03:45:08;100868.13;;;16.96;55.53
77263;BME280;66373;52.334;4.806;2024-03-23T03:47:35;100869.81;;;16.99;55.63
77263;BME280;66373;52.334;4.806;2024-03-23T03:50:02;100865.50;;;16.98;55.68
77263;BME280;66373;52.334;4.806;2024-03-23T03:52:30;100862.91;;;16.98;55.65
77263;BME280;66373;52.334;4.806;2024-03-23T03:55:02;100858.59;;;16.97;55.61
77263;BME280;66373;52.334;4.806;2024-03-23T03:57:29;100858.59;;;16.97;55.58
77263;BME280;66373;52.334;4.806;2024-03-23T03:59:55;100861.19;;;16.95;55.64
77263;BME280;66373;52.334;4.806;2024-03-23T04:02:22;100860.34;;;16.95;55.61
77263;BME280;66373;52.334;4.806;2024-03-23T04:04:49;100853.44;;;16.94;55.44
77263;BME280;66373;52.334;4.806;2024-03-23T04:07:17;100853.44;;;16.94;55.61
77263;BME280;66373;52.334;4.806;2024-03-23T04:09:44;100861.22;;;16.94;55.57
77263;BME280;66373;52.334;4.806;2024-03-23T04:12:11;100856.09;;;16.89;55.78
77263;BME280;66373;52.334;4.806;2024-03-23T04:14:37;100855.16;;;16.93;55.60
77263;BME280;66373;52.334;4.806;2024-03-23T04:17:04;100852.56;;;16.93;55.56
77263;BME280;66373;52.334;4.806;2024-03-23T04:19:30;100851.72;;;16.93;55.59
77263;BME280;66373;52.334;4.806;2024-03-23T04:21:58;100856.91;;;16.93;55.67
77263;BME280;66373;52.334;4.806;2024-03-23T04:24:25;100853.56;;;16.88;55.67
77263;BME280;66373;52.334;4.806;2024-03-23T04:26:52;100850.06;;;16.89;55.67
77263;BME280;66373;52.334;4.806;2024-03-23T04:29:18;100848.28;;;16.91;55.55
77263;BME280;66373;52.334;4.806;2024-03-23T04:31:45;100843.09;;;16.91;55.81
77263;BME280;66373;52.334;4.806;2024-03-23T04:34:11;100842.22;;;16.90;55.65
77263;BME280;66373;52.334;4.806;2024-03-23T04:36:38;100836.16;;;16.90;55.60
77263;BME280;66373;52.334;4.806;2024-03-23T04:39:06;100833.66;;;16.85;55.64
77263;BME280;66373;52.334;4.806;2024-03-23T04:41:36;100836.16;;;16.90;55.62
77263;BME280;66373;52.334;4.806;2024-03-23T04:44:03;100838.81;;;16.88;55.55
77263;BME280;66373;52.334;4.806;2024-03-23T04:46:30;100834.50;;;16.89;55.67
77263;BME280;66373;52.334;4.806;2024-03-23T04:48:57;100832.78;;;16.88;55.66
77263;BME280;66373;52.334;4.806;2024-03-23T04:51:24;100837.09;;;16.89;55.70
77263;BME280;66373;52.334;4.806;2024-03-23T04:53:51;100838.88;;;16.85;55.70
77263;BME280;66373;52.334;4.806;2024-03-23T04:56:19;100840.56;;;16.88;55.71
77263;BME280;66373;52.334;4.806;2024-03-23T04:58:46;100836.25;;;16.87;55.64
77263;BME280;66373;52.334;4.806;2024-03-23T05:01:13;100831.97;;;16.84;55.58
77263;BME280;66373;52.334;4.806;2024-03-23T05:03:39;100836.25;;;16.87;55.55
77263;BME280;66373;52.334;4.806;2024-03-23T05:06:07;100840.59;;;16.86;55.66
77263;BME280;66373;52.334;4.806;2024-03-23T05:08:33;100851.84;;;16.87;55.53
77263;BME280;66373;52.334;4.806;2024-03-23T05:11:00;100843.22;;;16.85;55.42
77263;BME280;66373;52.334;4.806;2024-03-23T05:13:26;100839.78;;;16.83;55.59
77263;BME280;66373;52.334;4.806;2024-03-23T05:15:55;100844.97;;;16.83;55.54
77263;BME280;66373;52.334;4.806;2024-03-23T05:18:21;100836.28;;;16.84;55.50
77263;BME280;66373;52.334;4.806;2024-03-23T05:20:48;100842.34;;;16.84;55.51
77263;BME280;66373;52.334;4.806;2024-03-23T05:23:14;100842.34;;;16.84;55.68
77263;BME280;66373;52.334;4.806;2024-03-23T05:25:41;100846.69;;;16.84;55.49
77263;BME280;66373;52.334;4.806;2024-03-23T05:28:07;100846.69;;;16.84;55.52
77263;BME280;66373;52.334;4.806;2024-03-23T05:30:35;100842.34;;;16.84;55.61
77263;BME280;66373;52.334;4.806;2024-03-23T05:33:02;100838.91;;;16.84;55.56
77263;BME280;66373;52.334;4.806;2024-03-23T05:35:29;100843.22;;;16.83;55.50
77263;BME280;66373;52.334;4.806;2024-03-23T05:37:55;100834.56;;;16.83;55.60
77263;BME280;66373;52.334;4.806;2024-03-23T05:40:22;100836.34;;;16.81;55.45
77263;BME280;66373;52.334;4.806;2024-03-23T05:42:49;100839.78;;;16.81;55.45
77263;BME280;66373;52.334;4.806;2024-03-23T05:45:18;100828.53;;;16.81;55.45
77263;BME280;66373;52.334;4.806;2024-03-23T05:47:44;100831.16;;;16.81;55.52
77263;BME280;66373;52.334;4.806;2024-03-23T05:50:13;100829.38;;;16.83;55.45
77263;BME280;66373;52.334;4.806;2024-03-23T05:52:40;100831.97;;;16.83;55.37
77263;BME280;66373;52.334;4.806;2024-03-23T05:55:09;100824.22;;;16.80;55.23
77263;BME280;66373;52.334;4.806;2024-03-23T05:57:35;100830.25;;;16.82;55.50
77263;BME280;66373;52.334;4.806;2024-03-23T06:00:03;100827.66;;;16.82;55.84
77263;BME280;66373;52.334;4.806;2024-03-23T06:02:37;100829.41;;;16.81;55.69
77263;BME280;66373;52.334;4.806;2024-03-23T06:05:04;100827.66;;;16.82;55.57
77263;BME280;66373;52.334;4.806;2024-03-23T06:07:32;100826.00;;;16.78;55.42
77263;BME280;66373;52.334;4.806;2024-03-23T06:09:59;100825.94;;;16.81;55.42
77263;BME280;66373;52.334;4.806;2024-03-23T06:12:26;100825.09;;;16.80;55.37
77263;BME280;66373;52.334;4.806;2024-03-23T06:14:53;100828.53;;;16.81;55.40
77263;BME280;66373;52.334;4.806;2024-03-23T06:17:19;100825.94;;;16.81;55.37
77263;BME280;66373;52.334;4.806;2024-03-23T06:19:46;100829.44;;;16.80;55.97
77263;BME280;66373;52.334;4.806;2024-03-23T06:22:12;100831.13;;;16.82;56.50
77263;BME280;66373;52.334;4.806;2024-03-23T06:24:41;100831.97;;;16.83;56.62
77263;BME280;66373;52.334;4.806;2024-03-23T06:27:07;100823.28;;;16.85;57.17
77263;BME280;66373;52.334;4.806;2024-03-23T06:29:34;100827.56;;;16.88;57.15
77263;BME280;66373;52.334;4.806;2024-03-23T06:32:02;100825.84;;;16.87;57.30
77263;BME280;66373;52.334;4.806;2024-03-23T06:34:29;100828.38;;;16.90;57.29
77263;BME280;66373;52.334;4.806;2024-03-23T06:36:55;100822.28;;;16.91;57.11
77263;BME280;66373;52.334;4.806;2024-03-23T06:39:23;100815.47;;;16.87;56.59
77263;BME280;66373;52.334;4.806;2024-03-23T06:41:53;100829.22;;;16.92;56.89
77263;BME280;66373;52.334;4.806;2024-03-23T06:44:20;100829.22;;;16.92;56.87
77263;BME280;66373;52.334;4.806;2024-03-23T06:46:47;100834.41;;;16.92;57.02
77263;BME280;66373;52.334;4.806;2024-03-23T06:49:14;100825.75;;;16.91;56.56
77263;BME280;66373;52.334;4.806;2024-03-23T06:51:40;100817.19;;;16.88;56.49
77263;BME280;66373;52.334;4.806;2024-03-23T06:54:08;100825.78;;;16.90;56.53
77263;BME280;66373;52.334;4.806;2024-03-23T06:56:34;100826.69;;;16.89;56.32
77263;BME280;66373;52.334;4.806;2024-03-23T06:59:02;100828.44;;;16.88;56.32
77263;BME280;66373;52.334;4.806;2024-03-23T07:01:29;100827.56;;;16.88;56.36
77263;BME280;66373;52.334;4.806;2024-03-23T07:03:56;100831.06;;;16.87;56.41
77263;BME280;66373;52.334;4.806;2024-03-23T07:06:22;100830.19;;;16.86;56.35
77263;BME280;66373;52.334;4.806;2024-03-23T07:08:49;100837.09;;;16.87;56.13
77263;BME280;66373;52.334;4.806;2024-03-23T07:11:19;100828.44;;;16.88;56.39
77263;BME280;66373;52.334;4.806;2024-03-23T07:13:49;100824.13;;;16.87;56.14
77263;BME280;66373;52.334;4.806;2024-03-23T07:16:17;100826.63;;;16.90;56.45
77263;BME280;66373;52.334;4.806;2024-03-23T07:18:44;100830.97;;;16.90;56.24
77263;BME280;66373;52.334;4.806;2024-03-23T07:21:10;100839.59;;;16.92;56.36
77263;BME280;66373;52.334;4.806;2024-03-23T07:23:37;100837.88;;;16.91;56.27
77263;BME280;66373;52.334;4.806;2024-03-23T07:26:05;100834.41;;;16.92;56.04
77263;BME280;66373;52.334;4.806;2024-03-23T07:28:33;100830.97;;;16.90;56.56
77263;BME280;66373;52.334;4.806;2024-03-23T07:31:02;100824.88;;;16.92;56.48
77263;BME280;66373;52.334;4.806;2024-03-23T07:33:31;100817.97;;;16.90;56.39
77263;BME280;66373;52.334;4.806;2024-03-23T07:35:58;100823.19;;;16.90;56.58
77263;BME280;66373;52.334;4.806;2024-03-23T07:38:27;100825.75;;;16.91;56.46
77263;BME280;66373;52.334;4.806;2024-03-23T07:41:02;100830.03;;;16.94;56.32
77263;BME280;66373;52.334;4.806;2024-03-23T07:43:30;100827.44;;;16.94;56.59
77263;BME280;66373;52.334;4.806;2024-03-23T07:45:56;100836.91;;;16.98;56.36
77263;BME280;66373;52.334;4.806;2024-03-23T07:48:23;100826.50;;;17.00;56.31
77263;BME280;66373;52.334;4.806;2024-03-23T07:51:01;100831.63;;;17.04;56.59
77263;BME280;66373;52.334;4.806;2024-03-23T07:53:29;100827.25;;;17.06;56.61
77263;BME280;66373;52.334;4.806;2024-03-23T07:55:56;100816.84;;;17.06;56.69
77263;BME280;66373;52.334;4.806;2024-03-23T07:58:24;100823.78;;;17.07;56.87
77263;BME280;66373;52.334;4.806;2024-03-23T08:00:50;100826.47;;;17.01;56.61
77263;BME280;66373;52.334;4.806;2024-03-23T08:03:18;100832.44;;;17.06;56.54
77263;BME280;66373;52.334;4.806;2024-03-23T08:05:44;100816.84;;;17.06;56.70
77263;BME280;66373;52.334;4.806;2024-03-23T08:08:13;100815.94;;;17.10;56.43
77263;BME280;66373;52.334;4.806;2024-03-23T08:10:47;100821.97;;;17.12;56.83
77263;BME280;66373;52.334;4.806;2024-03-23T08:13:15;100806.41;;;17.09;56.54
77263;BME280;66373;52.334;4.806;2024-03-23T08:15:41;100822.72;;;17.16;56.54
77263;BME280;66373;52.334;4.806;2024-03-23T08:18:10;100824.44;;;17.17;56.55
77263;BME280;66373;52.334;4.806;2024-03-23T08:20:36;100825.31;;;17.17;56.38
77263;BME280;66373;52.334;4.806;2024-03-23T08:23:04;100825.31;;;17.17;56.33
77263;BME280;66373;52.334;4.806;2024-03-23T08:25:32;100822.72;;;17.16;56.25
77263;BME280;66373;52.334;4.806;2024-03-23T08:27:59;100818.53;;;17.10;55.78
77263;BME280;66373;52.334;4.806;2024-03-23T08:30:26;100822.72;;;17.16;56.06
77263;BME280;66373;52.334;4.806;2024-03-23T08:32:53;100820.09;;;17.17;56.35
77263;BME280;66373;52.334;4.806;2024-03-23T08:35:19;100819.16;;;17.23;56.45
77263;BME280;66373;52.334;4.806;2024-03-23T08:37:46;100822.56;;;17.25;56.27
77263;BME280;66373;52.334;4.806;2024-03-23T08:40:13;100826.06;;;17.24;56.21
77263;BME280;66373;52.334;4.806;2024-03-23T08:42:41;100823.44;;;17.25;55.97
77263;BME280;66373;52.334;4.806;2024-03-23T08:45:08;100830.41;;;17.23;56.23
77263;BME280;66373;52.334;4.806;2024-03-23T08:47:35;100822.63;;;17.22;55.95
77263;BME280;66373;52.334;4.806;2024-03-23T08:50:01;100823.50;;;17.22;56.01
77263;BME280;66373;52.334;4.806;2024-03-23T08:52:29;100818.28;;;17.22;55.89
77263;BME280;66373;52.334;4.806;2024-03-23T08:54:55;100813.13;;;17.19;55.87
77263;BME280;66373;52.334;4.806;2024-03-23T08:57:22;100816.56;;;17.21;56.04
77263;BME280;66373;52.334;4.806;2024-03-23T08:59:50;100818.25;;;17.25;56.04
77263;BME280;66373;52.334;4.806;2024-03-23T09:02:17;100812.13;;;17.28;55.79
77263;BME280;66373;52.334;4.806;2024-03-23T09:04:44;100816.47;;;17.27;55.94
77263;BME280;66373;52.334;4.806;2024-03-23T09:07:11;100816.50;;;17.26;55.99
77263;BME280;66373;52.334;4.806;2024-03-23T09:09:38;100818.25;;;17.25;55.83
77263;BME280;66373;52.334;4.806;2024-03-23T09:12:06;100812.94;;;17.32;55.84
77263;BME280;66373;52.334;4.806;2024-03-23T09:14:33;100816.34;;;17.35;55.61
77263;BME280;66373;52.334;4.806;2024-03-23T09:17:01;100816.38;;;17.34;55.60
77263;BME280;66373;52.334;4.806;2024-03-23T09:19:28;100821.56;;;17.34;55.38
77263;BME280;66373;52.334;4.806;2024-03-23T09:21:56;100825.00;;;17.36;55.55
77263;BME280;66373;52.334;4.806;2024-03-23T09:24:22;100823.28;;;17.35;55.46
77263;BME280;66373;52.334;4.806;2024-03-23T09:26:49;100825.88;;;17.35;55.62
77263;BME280;66373;52.334;4.806;2024-03-23T09:29:17;100830.16;;;17.37;55.67
77263;BME280;66373;52.334;4.806;2024-03-23T09:31:44;100823.22;;;17.38;55.61
77263;BME280;66373;52.334;4.806;2024-03-23T09:34:12;100811.94;;;17.39;55.47
77263;BME280;66373;52.334;4.806;2024-03-23T09:36:39;100819.66;;;17.42;55.48
77263;BME280;66373;52.334;4.806;2024-03-23T09:39:06;100824.84;;;17.42;55.44
77263;BME280;66373;52.334;4.806;2024-03-23T09:41:35;100814.47;;;17.42;55.27
77263;BME280;66373;52.334;4.806;2024-03-23T09:44:02;100810.97;;;17.43;55.39
77263;BME280;66373;52.334;4.806;2024-03-23T09:46:28;100818.75;;;17.44;55.31
77263;BME280;66373;52.334;4.806;2024-03-23T09:48:55;100817.88;;;17.44;55.13
77263;BME280;66373;52.334;4.806;2024-03-23T09:51:23;100812.69;;;17.44;55.15
77263;BME280;66373;52.334;4.806;2024-03-23T09:53:51;100818.66;;;17.49;55.22
77263;BME280;66373;52.334;4.806;2024-03-23T09:56:18;100809.09;;;17.51;55.37
77263;BME280;66373;52.334;4.806;2024-03-23T09:58:46;100802.94;;;17.55;55.15
77263;BME280;66373;52.334;4.806;2024-03-23T10:01:12;100808.97;;;17.57;55.06
77263;BME280;66373;52.334;4.806;2024-03-23T10:03:43;100809.88;;;17.56;55.23
77263;BME280;66373;52.334;4.806;2024-03-23T10:06:09;100812.50;;;17.54;55.16
77263;BME280;66373;52.334;4.806;2024-03-23T10:08:38;100808.97;;;17.57;55.04
77263;BME280;66373;52.334;4.806;2024-03-23T10:11:13;100806.28;;;17.61;55.08
77263;BME280;66373;52.334;4.806;2024-03-23T10:13:41;100808.91;;;17.60;55.27
77263;BME280;66373;52.334;4.806;2024-03-23T10:16:08;100801.19;;;17.55;55.24
77263;BME280;66373;52.334;4.806;2024-03-23T10:18:39;100801.16;;;17.58;55.00
77263;BME280;66373;52.334;4.806;2024-03-23T10:21:09;100806.34;;;17.58;55.14
77263;BME280;66373;52.334;4.806;2024-03-23T10:23:40;100801.94;;;17.62;55.04
77263;BME280;66373;52.334;4.806;2024-03-23T10:26:14;100805.38;;;17.64;55.03
77263;BME280;66373;52.334;4.806;2024-03-23T10:28:51;100803.72;;;17.60;55.27
77263;BME280;66373;52.334;4.806;2024-03-23T10:31:18;100802.81;;;17.62;54.97
77263;BME280;66373;52.334;4.806;2024-03-23T10:33:46;100808.84;;;17.66;55.17
77263;BME280;66373;52.334;4.806;2024-03-23T10:36:12;100808.75;;;17.69;55.03
77263;BME280;66373;52.334;4.806;2024-03-23T10:38:43;100813.84;;;17.75;55.06
77263;BME280;66373;52.334;4.806;2024-03-23T10:41:09;100805.16;;;17.76;54.63
77263;BME280;66373;52.334;4.806;2024-03-23T10:43:37;100802.44;;;17.82;54.67
77263;BME280;66373;52.334;4.806;2024-03-23T10:46:03;100799.81;;;17.82;54.87
77263;BME280;66373;52.334;4.806;2024-03-23T10:48:31;100811.94;;;17.83;54.60
77263;BME280;66373;52.334;4.806;2024-03-23T10:50:57;100803.25;;;17.84;54.94
77263;BME280;66373;52.334;4.806;2024-03-23T10:53:27;100803.19;;;17.87;54.72
77263;BME280;66373;52.334;4.806;2024-03-23T10:55:55;100801.41;;;17.89;54.61
77263;BME280;66373;52.334;4.806;2024-03-23T10:58:26;100811.84;;;17.88;54.38
77263;BME280;66373;52.334;4.806;2024-03-23T11:00:53;100804.91;;;17.88;54.35
77263;BME280;66373;52.334;4.806;2024-03-23T11:03:34;100794.63;;;17.82;54.50
77263;BME280;66373;52.334;4.806;2024-03-23T11:06:01;100799.69;;;17.88;54.48
77263;BME280;66373;52.334;4.806;2024-03-23T11:08:34;100797.13;;;17.87;54.51
77263;BME280;66373;52.334;4.806;2024-03-23T11:11:17;100800.56;;;17.89;54.68
77263;BME280;66373;52.334;4.806;2024-03-23T11:13:47;100809.25;;;17.88;54.61
77263;BME280;66373;52.334;4.806;2024-03-23T11:16:14;100798.88;;;17.86;54.35
77263;BME280;66373;52.334;4.806;2024-03-23T11:18:42;100802.34;;;17.87;54.58
77263;BME280;66373;52.334;4.806;2024-03-23T11:21:10;100794.50;;;17.88;54.46
77263;BME280;66373;52.334;4.806;2024-03-23T11:23:37;100797.06;;;17.90;54.27
77263;BME280;66373;52.334;4.806;2024-03-23T11:26:07;100787.41;;;17.93;54.25
77263;BME280;66373;52.334;4.806;2024-03-23T11:28:35;100785.66;;;17.95;54.55
77263;BME280;66373;52.334;4.806;2024-03-23T11:31:09;100784.75;;;17.96;54.26
77263;BME280;66373;52.334;4.806;2024-03-23T11:33:36;100783.00;;;17.97;54.59
77263;BME280;66373;52.334;4.806;2024-03-23T11:36:03;100786.50;;;17.96;54.44
77263;BME280;66373;52.334;4.806;2024-03-23T11:38:36;100789.13;;;17.94;54.36
77263;BME280;66373;52.334;4.806;2024-03-23T11:41:02;100773.53;;;17.94;54.08
77263;BME280;66373;52.334;4.806;2024-03-23T11:43:30;100776.94;;;17.96;54.37
77263;BME280;66373;52.334;4.806;2024-03-23T11:45:58;100779.53;;;17.98;54.16
77263;BME280;66373;52.334;4.806;2024-03-23T11:48:28;100781.31;;;17.96;54.11
77263;BME280;66373;52.334;4.806;2024-03-23T11:50:56;100771.75;;;17.96;54.18
77263;BME280;66373;52.334;4.806;2024-03-23T11:53:24;100789.06;;;17.97;54.26
77263;BME280;66373;52.334;4.806;2024-03-23T11:55:55;100785.66;;;17.95;54.35
77263;BME280;66373;52.334;4.806;2024-03-23T11:58:24;100796.78;;;18.02;53.93
77263;BME280;66373;52.334;4.806;2024-03-23T12:00:51;100800.25;;;18.03;53.91
77263;BME280;66373;52.334;4.806;2024-03-23T12:03:20;100802.00;;;18.02;54.07
77263;BME280;66373;52.334;4.806;2024-03-23T12:05:48;100803.69;;;18.05;53.60
77263;BME280;66373;52.334;4.806;2024-03-23T12:08:20;100803.75;;;18.02;53.80
77263;BME280;66373;52.334;4.806;2024-03-23T12:10:48;100803.75;;;18.02;53.90
77263;BME280;66373;52.334;4.806;2024-03-23T12:13:20;100796.81;;;18.01;53.81
77263;BME280;66373;52.334;4.806;2024-03-23T12:15:48;100783.81;;;18.01;53.59
77263;BME280;66373;52.334;4.806;2024-03-23T12:18:16;100782.16;;;17.96;53.95
77263;BME280;66373;52.334;4.806;2024-03-23T12:20:43;100775.41;;;17.89;53.94
77263;BME280;66373;52.334;4.806;2024-03-23T12:23:11;100772.75;;;17.91;53.79
77263;BME280;66373;52.334;4.806;2024-03-23T12:25:41;100775.38;;;17.91;53.84
77263;BME280;66373;52.334;4.806;2024-03-23T12:28:08;100778.00;;;17.89;53.88
77263;BME280;66373;52.334;4.806;2024-03-23T12:30:35;100770.28;;;17.85;53.75
77263;BME280;66373;52.334;4.806;2024-03-23T12:33:02;100768.50;;;17.87;53.91
77263;BME280;66373;52.334;4.806;2024-03-23T12:35:29;100767.59;;;17.89;53.53
77263;BME280;66373;52.334;4.806;2024-03-23T12:37:58;100762.31;;;17.92;53.88
77263;BME280;66373;52.334;4.806;2024-03-23T12:40:24;100759.78;;;17.89;53.86
77263;BME280;66373;52.334;4.806;2024-03-23T12:42:52;100753.75;;;17.87;53.63
77263;BME280;66373;52.334;4.806;2024-03-23T12:45:19;100760.75;;;17.84;53.89
77263;BME280;66373;52.334;4.806;2024-03-23T12:47:46;100768.59;;;17.82;53.92
77263;BME280;66373;52.334;4.806;2024-03-23T12:50:12;100766.84;;;17.83;53.79
77263;BME280;66373;52.334;4.806;2024-03-23T12:52:39;100776.44;;;17.81;53.70
77263;BME280;66373;52.334;4.806;2024-03-23T12:55:07;100773.78;;;17.84;53.44
77263;BME280;66373;52.334;4.806;2024-03-23T12:57:34;100772.06;;;17.83;53.58
77263;BME280;66373;52.334;4.806;2024-03-23T13:00:01;100770.38;;;17.80;53.79
77263;BME280;66373;52.334;4.806;2024-03-23T13:02:29;100774.69;;;17.81;53.54
77263;BME280;66373;52.334;4.806;2024-03-23T13:04:55;100771.22;;;17.81;53.72
77263;BME280;66373;52.334;4.806;2024-03-23T13:07:23;100764.19;;;17.86;53.30
77263;BME280;66373;52.334;4.806;2024-03-23T13:09:50;100753.75;;;17.87;53.28
77263;BME280;66373;52.334;4.806;2024-03-23T13:12:19;100763.28;;;17.88;53.84
77263;BME280;66373;52.334;4.806;2024-03-23T13:14:46;100747.66;;;17.88;54.01
77263;BME280;66373;52.334;4.806;2024-03-23T13:17:13;100738.09;;;17.89;53.92
77263;BME280;66373;52.334;4.806;2024-03-23T13:19:39;100741.50;;;17.92;53.90
77263;BME280;66373;52.334;4.806;2024-03-23T13:22:06;100718.22;;;17.86;53.85
77263;BME280;66373;52.334;4.806;2024-03-23T13:24:32;100730.16;;;17.93;53.54
77263;BME280;66373;52.334;4.806;2024-03-23T13:26:59;100731.88;;;17.94;53.57
77263;BME280;66373;52.334;4.806;2024-03-23T13:29:27;100718.06;;;17.92;53.29
77263;BME280;66373;52.334;4.806;2024-03-23T13:31:54;100727.66;;;17.90;53.66
77263;BME280;66373;52.334;4.806;2024-03-23T13:34:20;100714.69;;;17.89;53.81
77263;BME280;66373;52.334;4.806;2024-03-23T13:36:47;100710.28;;;17.92;53.40
77263;BME280;66373;52.334;4.806;2024-03-23T13:39:14;100705.78;;;17.97;53.29
77263;BME280;66373;52.334;4.806;2024-03-23T13:41:43;100707.56;;;17.95;53.23
77263;BME280;66373;52.334;4.806;2024-03-23T13:44:10;100702.47;;;17.92;53.01
77263;BME280;66373;52.334;4.806;2024-03-23T13:46:40;100707.56;;;17.95;53.25